Time;durP1;ratioP1;P1;durP2;ratioP2;P2;SDS_P1;SDS_P2;PMS_P1;PMS_P2;Temp;Humidity;BMP_temperature;BMP_pressure;BME280_temperature;BME280_humidity;BME280_pressure;Samples;Min_cycle;Max_cycle;Signal;HPM_P1;HPM_P2
2022/04/15 00:02:18;;;;;;;7.50;5.57;;;;;;;;;;4987546;28;20309;-79
2022/04/15 00:04:46;;;;;;;6.53;5.83;;;;;;;;;;4999769;28;20222;-79
2022/04/15 00:07:11;;;;;;;6.40;5.80;;;;;;;;;;5012687;28;20264;-79
2022/04/15 00:09:37;;;;;;;7.90;6.13;;;;;;;;;;4992987;28;20308;-79
2022/04/15 00:12:10;;;;;;;7.87;5.93;;;;;;;;;;4955182;28;20304;-77
2022/04/15 00:14:39;;;;;;;8.30;5.97;;;;;;;;;;4983088;28;20232;-79
2022/04/15 00:17:05;;;;;;;10.07;6.00;;;;;;;;;;4989475;28;20230;-78
2022/04/15 00:19:32;;;;;;;9.53;6.33;;;;;;;;;;4992722;28;20236;-80
2022/04/15 00:22:00;;;;;;;8.03;6.30;;;;;;;;;;5015885;28;20680;-76
2022/04/15 00:24:25;;;;;;;8.83;6.90;;;;;;;;;;5003385;28;20228;-77
2022/04/15 00:26:52;;;;;;;10.07;7.63;;;;;;;;;;4991456;28;20261;-78
2022/04/15 00:29:22;;;;;;;9.63;6.63;;;;;;;;;;4981924;28;20597;-79
2022/04/15 00:31:47;;;;;;;8.17;6.77;;;;;;;;;;4966263;28;20241;-78
2022/04/15 00:34:13;;;;;;;9.07;7.67;;;;;;;;;;5008701;28;20235;-79
2022/04/15 00:36:43;;;;;;;10.20;8.13;;;;;;;;;;4998700;28;20669;-78
2022/04/15 00:39:10;;;;;;;9.10;7.87;;;;;;;;;;4984180;28;20658;-79
2022/04/15 00:41:42;;;;;;;10.47;7.87;;;;;;;;;;4988502;28;20226;-78
2022/04/15 00:44:08;;;;;;;9.80;8.60;;;;;;;;;;4970847;28;20317;-79
2022/04/15 00:46:36;;;;;;;10.17;8.70;;;;;;;;;;4998528;28;20237;-79
2022/04/15 00:49:01;;;;;;;9.57;8.40;;;;;;;;;;5008085;28;20225;-77
2022/04/15 00:51:27;;;;;;;12.63;8.77;;;;;;;;;;5002728;28;20225;-76
2022/04/15 00:53:53;;;;;;;11.47;8.67;;;;;;;;;;4988317;28;20230;-77
2022/04/15 00:56:21;;;;;;;11.33;9.07;;;;;;;;;;4983555;28;20289;-79
2022/04/15 00:58:47;;;;;;;13.27;9.60;;;;;;;;;;4971341;28;20316;-78
2022/04/15 01:01:13;;;;;;;14.43;9.37;;;;;;;;;;4984985;28;20759;-79
2022/04/15 01:03:41;;;;;;;11.20;9.07;;;;;;;;;;4983611;28;20317;-79
2022/04/15 01:06:07;;;;;;;10.60;9.53;;;;;;;;;;4968360;28;20718;-79
2022/04/15 01:08:37;;;;;;;10.20;9.07;;;;;;;;;;5011242;28;20221;-79
2022/04/15 01:11:03;;;;;;;11.03;9.03;;;;;;;;;;4998088;28;20241;-77
2022/04/15 01:13:31;;;;;;;12.97;9.13;;;;;;;;;;5001014;28;20726;-78
2022/04/15 01:15:56;;;;;;;10.27;8.93;;;;;;;;;;4959832;28;20217;-79
2022/04/15 01:18:22;;;;;;;13.07;9.63;;;;;;;;;;5000536;28;20316;-78
2022/04/15 01:20:52;;;;;;;13.10;9.33;;;;;;;;;;4997279;28;20296;-79
2022/04/15 01:23:17;;;;;;;12.00;9.80;;;;;;;;;;4990274;28;20226;-77
2022/04/15 01:25:43;;;;;;;12.53;9.70;;;;;;;;;;4995752;28;20784;-77
2022/04/15 01:28:09;;;;;;;12.10;9.13;;;;;;;;;;5012859;28;20252;-79
2022/04/15 01:30:34;;;;;;;10.40;9.40;;;;;;;;;;5000147;28;20222;-77
2022/04/15 01:33:01;;;;;;;13.47;9.20;;;;;;;;;;5000957;28;20230;-77
2022/04/15 01:35:29;;;;;;;11.23;8.73;;;;;;;;;;5005466;28;21031;-77
2022/04/15 01:37:59;;;;;;;13.30;9.73;;;;;;;;;;4998018;28;20247;-76
2022/04/15 01:40:27;;;;;;;11.93;9.47;;;;;;;;;;5013666;28;20253;-79
2022/04/15 01:42:53;;;;;;;10.27;9.27;;;;;;;;;;4990670;28;20229;-77
2022/04/15 01:45:21;;;;;;;12.97;8.73;;;;;;;;;;4989028;28;20613;-80
2022/04/15 01:47:47;;;;;;;10.70;8.93;;;;;;;;;;4999849;28;20234;-78
2022/04/15 01:50:17;;;;;;;10.03;8.97;;;;;;;;;;5003242;28;20225;-80
2022/04/15 01:52:42;;;;;;;11.17;8.70;;;;;;;;;;4993492;28;20238;-78
2022/04/15 01:55:10;;;;;;;10.33;9.20;;;;;;;;;;4992738;28;20260;-78
2022/04/15 01:57:37;;;;;;;10.80;9.60;;;;;;;;;;4986349;28;20305;-78
2022/04/15 02:00:05;;;;;;;9.90;8.90;;;;;;;;;;4995755;28;20234;-79
2022/04/15 02:02:37;;;;;;;9.90;8.63;;;;;;;;;;5006970;28;20286;-78
2022/04/15 02:05:03;;;;;;;12.07;9.10;;;;;;;;;;4996695;28;20289;-76
2022/04/15 02:07:28;;;;;;;10.30;8.70;;;;;;;;;;4997583;28;20305;-79
2022/04/15 02:09:54;;;;;;;9.97;8.93;;;;;;;;;;4962755;28;20312;-78
2022/04/15 02:12:19;;;;;;;10.50;9.40;;;;;;;;;;4963195;28;20253;-77
2022/04/15 02:14:47;;;;;;;9.40;8.50;;;;;;;;;;4967644;28;20296;-79
2022/04/15 02:17:12;;;;;;;9.83;8.87;;;;;;;;;;4978453;28;20276;-78
2022/04/15 02:19:38;;;;;;;10.83;8.67;;;;;;;;;;4975224;28;20348;-78
2022/04/15 02:22:04;;;;;;;10.67;8.97;;;;;;;;;;4994353;28;20786;-79
2022/04/15 02:24:31;;;;;;;11.87;9.60;;;;;;;;;;4978761;28;20309;-79
2022/04/15 02:26:57;;;;;;;11.20;9.87;;;;;;;;;;4988453;28;20232;-78
2022/04/15 02:29:22;;;;;;;11.03;9.93;;;;;;;;;;5004244;28;20253;-78
2022/04/15 02:31:48;;;;;;;10.77;9.67;;;;;;;;;;5004769;28;20240;-78
2022/04/15 02:34:13;;;;;;;12.70;10.00;;;;;;;;;;5004848;28;20230;-78
2022/04/15 02:36:46;;;;;;;11.07;9.70;;;;;;;;;;4990518;28;20250;-78
2022/04/15 02:39:11;;;;;;;12.40;10.33;;;;;;;;;;4958253;28;20237;-78
2022/04/15 02:41:43;;;;;;;11.00;9.90;;;;;;;;;;4995639;28;20218;-78
2022/04/15 02:44:09;;;;;;;11.97;9.30;;;;;;;;;;4983813;28;20697;-79
2022/04/15 02:46:35;;;;;;;10.57;9.47;;;;;;;;;;4955217;28;20250;-79
2022/04/15 02:49:00;;;;;;;10.97;9.67;;;;;;;;;;4999428;28;20297;-79
2022/04/15 02:51:28;;;;;;;11.90;9.90;;;;;;;;;;4983282;28;20292;-77
2022/04/15 02:53:53;;;;;;;10.70;9.60;;;;;;;;;;4978064;28;20604;-79
2022/04/15 02:56:21;;;;;;;13.30;9.63;;;;;;;;;;4980837;28;20237;-78
2022/04/15 02:58:49;;;;;;;11.40;9.50;;;;;;;;;;4997011;28;20251;-80
2022/04/15 03:01:17;;;;;;;10.57;9.00;;;;;;;;;;4982138;28;20886;-80
2022/04/15 03:03:45;;;;;;;14.87;10.27;;;;;;;;;;4984990;28;20232;-80
2022/04/15 03:06:13;;;;;;;12.00;9.90;;;;;;;;;;5005705;28;20636;-78
2022/04/15 03:08:41;;;;;;;10.87;9.77;;;;;;;;;;4988212;28;20218;-79
2022/04/15 03:11:07;;;;;;;11.47;9.57;;;;;;;;;;4971735;28;20222;-77
2022/04/15 03:13:33;;;;;;;11.33;9.83;;;;;;;;;;4990502;28;20225;-78
2022/04/15 03:15:58;;;;;;;10.47;9.30;;;;;;;;;;4996721;28;20228;-78
2022/04/15 03:18:23;;;;;;;10.83;9.40;;;;;;;;;;4981216;28;20245;-79
2022/04/15 03:20:51;;;;;;;10.53;9.47;;;;;;;;;;4989637;28;20295;-80
2022/04/15 03:23:19;;;;;;;11.13;9.87;;;;;;;;;;4983606;28;20747;-80
2022/04/15 03:25:46;;;;;;;10.70;9.60;;;;;;;;;;5017643;28;20232;-76
2022/04/15 03:28:15;;;;;;;10.37;9.37;;;;;;;;;;5006373;28;20256;-76
2022/04/15 03:30:40;;;;;;;10.73;9.63;;;;;;;;;;5010617;28;20285;-76
2022/04/15 03:33:06;;;;;;;11.33;9.57;;;;;;;;;;5017242;28;20236;-79
2022/04/15 03:35:34;;;;;;;11.37;9.57;;;;;;;;;;4987254;28;20210;-77
2022/04/15 03:37:59;;;;;;;11.00;9.90;;;;;;;;;;5003287;28;20257;-77
2022/04/15 03:40:27;;;;;;;11.40;10.20;;;;;;;;;;5009949;28;20210;-78
2022/04/15 03:42:54;;;;;;;10.80;9.57;;;;;;;;;;4969543;28;20226;-79
2022/04/15 03:45:22;;;;;;;11.93;10.53;;;;;;;;;;4988000;28;20289;-79
2022/04/15 03:47:48;;;;;;;11.43;10.23;;;;;;;;;;4979970;28;20284;-79
2022/04/15 03:50:13;;;;;;;11.60;10.43;;;;;;;;;;5005058;28;20229;-78
2022/04/15 03:52:42;;;;;;;12.60;10.53;;;;;;;;;;4994898;28;20241;-80
2022/04/15 03:55:10;;;;;;;12.67;10.50;;;;;;;;;;4999866;28;20222;-78
2022/04/15 03:57:36;;;;;;;12.33;10.73;;;;;;;;;;4971152;28;20233;-79
2022/04/15 04:00:08;;;;;;;12.77;11.47;;;;;;;;;;4980761;28;20249;-79
2022/04/15 04:02:36;;;;;;;14.87;13.27;;;;;;;;;;4983112;28;20276;-78
2022/04/15 04:05:02;;;;;;;14.20;11.00;;;;;;;;;;4977702;28;20221;-79
2022/04/15 04:07:27;;;;;;;12.80;11.10;;;;;;;;;;4985492;28;20226;-79
2022/04/15 04:09:53;;;;;;;12.67;10.80;;;;;;;;;;4991733;28;20290;-79
2022/04/15 04:12:18;;;;;;;12.10;10.80;;;;;;;;;;4987095;28;20229;-79
2022/04/15 04:14:44;;;;;;;13.23;10.83;;;;;;;;;;4978651;28;20217;-80
2022/04/15 04:17:09;;;;;;;13.83;11.33;;;;;;;;;;4977115;28;20276;-79
2022/04/15 04:19:39;;;;;;;12.83;11.07;;;;;;;;;;4994384;28;20712;-80
2022/04/15 04:22:05;;;;;;;11.70;10.50;;;;;;;;;;4985790;28;20252;-79
2022/04/15 04:24:34;;;;;;;14.00;11.03;;;;;;;;;;4979673;28;20725;-78
2022/04/15 04:27:01;;;;;;;13.13;10.80;;;;;;;;;;4992453;28;20234;-81
2022/04/15 04:29:27;;;;;;;11.80;10.60;;;;;;;;;;4962268;28;20312;-81
2022/04/15 04:31:52;;;;;;;11.80;10.60;;;;;;;;;;4971354;28;20796;-79
2022/04/15 04:34:18;;;;;;;11.47;10.27;;;;;;;;;;4993638;28;20236;-79
2022/04/15 04:36:48;;;;;;;11.90;10.60;;;;;;;;;;5005691;28;20221;-79
2022/04/15 04:39:14;;;;;;;11.90;10.27;;;;;;;;;;4983150;28;20584;-80
2022/04/15 04:41:42;;;;;;;11.00;9.73;;;;;;;;;;4982362;28;20252;-80
2022/04/15 04:44:07;;;;;;;11.67;9.83;;;;;;;;;;4957578;28;20229;-80
2022/04/15 04:46:33;;;;;;;12.23;9.97;;;;;;;;;;4990492;28;20238;-80
2022/04/15 04:48:58;;;;;;;11.87;10.00;;;;;;;;;;4992320;28;20244;-80
2022/04/15 04:51:24;;;;;;;13.03;10.07;;;;;;;;;;5014316;28;20664;-80
2022/04/15 04:53:49;;;;;;;11.60;10.17;;;;;;;;;;4999760;28;20234;-80
2022/04/15 04:56:19;;;;;;;11.53;9.73;;;;;;;;;;5005264;28;20728;-78
2022/04/15 04:58:47;;;;;;;10.80;9.70;;;;;;;;;;4991076;28;20275;-79
2022/04/15 05:01:13;;;;;;;12.40;9.17;;;;;;;;;;4984850;28;20316;-80
2022/04/15 05:03:38;;;;;;;11.43;9.83;;;;;;;;;;4992100;28;20281;-80
2022/04/15 05:06:04;;;;;;;11.00;9.87;;;;;;;;;;4999190;28;20313;-79
2022/04/15 05:08:32;;;;;;;13.10;10.00;;;;;;;;;;4989307;28;20237;-77
2022/04/15 05:10:59;;;;;;;10.77;9.20;;;;;;;;;;5000699;28;20220;-80
2022/04/15 05:13:30;;;;;;;13.20;10.23;;;;;;;;;;4998847;28;20772;-79
2022/04/15 05:15:57;;;;;;;11.40;9.90;;;;;;;;;;4994149;28;20288;-80
2022/04/15 05:18:23;;;;;;;15.90;9.40;;;;;;;;;;4971521;28;20693;-78
2022/04/15 05:20:51;;;;;;;12.40;9.47;;;;;;;;;;4985443;28;20226;-78
2022/04/15 05:23:16;;;;;;;12.37;10.20;;;;;;;;;;4993157;28;20234;-80
2022/04/15 05:25:46;;;;;;;10.83;9.63;;;;;;;;;;4998222;28;20249;-79
2022/04/15 05:28:12;;;;;;;10.53;8.97;;;;;;;;;;4966166;28;20317;-79
2022/04/15 05:30:37;;;;;;;14.23;9.43;;;;;;;;;;4989541;28;20288;-78
2022/04/15 05:33:05;;;;;;;11.13;9.60;;;;;;;;;;4987150;28;20222;-79
2022/04/15 05:35:33;;;;;;;12.50;9.77;;;;;;;;;;4986108;28;20218;-79
2022/04/15 05:38:00;;;;;;;11.90;9.80;;;;;;;;;;4998392;28;20224;-79
2022/04/15 05:40:28;;;;;;;12.93;10.37;;;;;;;;;;4988742;28;20228;-79
2022/04/15 05:42:54;;;;;;;12.23;9.57;;;;;;;;;;5000691;28;20226;-80
2022/04/15 05:45:20;;;;;;;12.77;9.70;;;;;;;;;;4980655;28;20218;-79
2022/04/15 05:47:48;;;;;;;12.97;9.57;;;;;;;;;;4974444;28;20702;-80
2022/04/15 05:50:20;;;;;;;12.53;9.70;;;;;;;;;;4975979;28;20256;-79
2022/04/15 05:52:46;;;;;;;13.30;9.80;;;;;;;;;;4979345;28;20218;-79
2022/04/15 05:55:11;;;;;;;11.87;10.03;;;;;;;;;;4983971;28;20664;-79
2022/04/15 05:57:37;;;;;;;13.23;10.27;;;;;;;;;;4986142;28;20329;-79
2022/04/15 06:00:04;;;;;;;13.57;10.63;;;;;;;;;;4949688;28;20312;-79
2022/04/15 06:02:37;;;;;;;14.33;10.30;;;;;;;;;;4989197;28;20239;-80
2022/04/15 06:05:02;;;;;;;13.83;9.97;;;;;;;;;;5006900;28;20230;-80
2022/04/15 06:07:30;;;;;;;13.73;9.90;;;;;;;;;;4988654;28;20231;-79
2022/04/15 06:09:56;;;;;;;12.70;9.83;;;;;;;;;;4981668;28;20241;-79
2022/04/15 06:12:22;;;;;;;14.77;10.30;;;;;;;;;;5004844;28;20222;-79
2022/04/15 06:14:53;;;;;;;13.47;10.20;;;;;;;;;;4967781;28;20226;-80
2022/04/15 06:17:22;;;;;;;12.53;10.50;;;;;;;;;;4962663;28;20244;-80
2022/04/15 06:19:50;;;;;;;14.13;10.80;;;;;;;;;;5007464;28;20240;-77
2022/04/15 06:22:16;;;;;;;13.43;10.30;;;;;;;;;;5008316;28;20230;-76
2022/04/15 06:24:43;;;;;;;13.90;10.80;;;;;;;;;;5006305;28;20232;-77
2022/04/15 06:27:09;;;;;;;11.97;10.67;;;;;;;;;;4977303;28;20241;-77
2022/04/15 06:29:34;;;;;;;12.53;10.77;;;;;;;;;;5005584;28;20329;-77
2022/04/15 06:32:02;;;;;;;15.37;11.33;;;;;;;;;;5002542;28;20700;-76
2022/04/15 06:34:30;;;;;;;12.27;11.07;;;;;;;;;;5012153;28;20225;-78
2022/04/15 06:37:00;;;;;;;12.23;10.40;;;;;;;;;;5011921;28;20234;-79
2022/04/15 06:39:28;;;;;;;14.50;12.00;;;;;;;;;;5003788;28;20236;-78
2022/04/15 06:41:53;;;;;;;14.13;11.17;;;;;;;;;;5022688;28;20249;-77
2022/04/15 06:44:19;;;;;;;14.70;11.67;;;;;;;;;;5017675;28;20240;-78
2022/04/15 06:46:45;;;;;;;14.10;11.10;;;;;;;;;;5001617;28;20261;-78
2022/04/15 06:49:12;;;;;;;16.10;11.20;;;;;;;;;;5008788;28;20245;-77
2022/04/15 06:51:40;;;;;;;14.57;11.47;;;;;;;;;;4972050;28;20217;-78
2022/04/15 06:54:10;;;;;;;14.40;10.83;;;;;;;;;;5013642;28;20218;-78
2022/04/15 06:56:35;;;;;;;12.00;10.70;;;;;;;;;;5016509;28;20225;-77
2022/04/15 06:59:03;;;;;;;12.37;11.00;;;;;;;;;;5013263;28;20223;-78
2022/04/15 07:01:30;;;;;;;13.73;11.47;;;;;;;;;;5008094;28;20240;-78
2022/04/15 07:03:58;;;;;;;13.73;10.87;;;;;;;;;;5007606;28;20228;-77
2022/04/15 07:06:24;;;;;;;14.80;12.00;;;;;;;;;;5012617;28;20329;-77
2022/04/15 07:08:52;;;;;;;16.93;12.27;;;;;;;;;;5001257;28;20226;-77
2022/04/15 07:11:17;;;;;;;15.10;12.20;;;;;;;;;;4986181;28;20273;-76
2022/04/15 07:13:43;;;;;;;15.47;12.63;;;;;;;;;;4990854;28;20673;-77
2022/04/15 07:16:08;;;;;;;16.30;12.57;;;;;;;;;;4996209;28;20222;-79
2022/04/15 07:18:34;;;;;;;17.57;13.17;;;;;;;;;;4979716;28;20241;-79
2022/04/15 07:20:59;;;;;;;15.63;13.07;;;;;;;;;;5005351;28;20247;-80
2022/04/15 07:23:25;;;;;;;18.40;13.27;;;;;;;;;;5011366;28;20234;-80
2022/04/15 07:25:50;;;;;;;20.27;13.27;;;;;;;;;;5002851;28;20738;-80
2022/04/15 07:28:18;;;;;;;15.67;12.83;;;;;;;;;;4963619;28;20293;-80
2022/04/15 07:30:44;;;;;;;18.13;13.30;;;;;;;;;;4983120;28;20225;-80
2022/04/15 07:33:09;;;;;;;17.37;13.50;;;;;;;;;;4983522;28;20316;-79
2022/04/15 07:35:35;;;;;;;17.47;13.00;;;;;;;;;;5003522;28;20379;-78
2022/04/15 07:38:02;;;;;;;16.80;13.87;;;;;;;;;;4978989;28;20253;-79
2022/04/15 07:40:32;;;;;;;17.33;13.50;;;;;;;;;;4970752;28;20656;-79
2022/04/15 07:42:58;;;;;;;17.17;13.77;;;;;;;;;;4986610;28;20708;-80
2022/04/15 07:45:26;;;;;;;21.73;14.37;;;;;;;;;;5004308;28;20308;-78
2022/04/15 07:47:51;;;;;;;23.67;14.90;;;;;;;;;;4994004;28;20304;-80
2022/04/15 07:50:22;;;;;;;20.73;14.97;;;;;;;;;;4985827;28;20776;-79
2022/04/15 07:52:50;;;;;;;22.73;15.57;;;;;;;;;;5006828;28;20291;-80
2022/04/15 07:55:16;;;;;;;21.90;15.53;;;;;;;;;;4996095;28;20229;-79
2022/04/15 07:57:42;;;;;;;21.17;15.97;;;;;;;;;;4995653;28;20280;-79
2022/04/15 08:00:10;;;;;;;23.57;16.53;;;;;;;;;;4978505;28;20232;-79
2022/04/15 08:02:41;;;;;;;22.10;16.47;;;;;;;;;;4963637;28;20225;-81
2022/04/15 08:05:10;;;;;;;23.73;16.37;;;;;;;;;;4981970;28;20250;-80
2022/04/15 08:07:38;;;;;;;24.03;16.80;;;;;;;;;;4980245;28;20611;-80
2022/04/15 08:10:03;;;;;;;23.60;17.17;;;;;;;;;;5005545;28;20341;-79
2022/04/15 08:12:29;;;;;;;24.10;17.00;;;;;;;;;;4958225;28;20998;-79
2022/04/15 08:14:57;;;;;;;24.33;16.90;;;;;;;;;;4987306;28;20221;-78
2022/04/15 08:17:22;;;;;;;25.30;16.40;;;;;;;;;;4988651;28;20324;-79
2022/04/15 08:19:48;;;;;;;26.87;16.57;;;;;;;;;;4988811;28;20281;-79
2022/04/15 08:22:15;;;;;;;29.17;16.70;;;;;;;;;;5001711;28;20329;-77
2022/04/15 08:24:42;;;;;;;21.27;14.63;;;;;;;;;;5002377;28;20757;-79
2022/04/15 08:27:09;;;;;;;19.43;15.43;;;;;;;;;;4987015;28;20308;-77
2022/04/15 08:29:38;;;;;;;21.87;15.33;;;;;;;;;;4994460;28;20229;-77
2022/04/15 08:32:06;;;;;;;20.40;15.50;;;;;;;;;;5012330;28;20376;-78
2022/04/15 08:34:31;;;;;;;22.00;15.83;;;;;;;;;;4991246;28;20613;-80
2022/04/15 08:36:57;;;;;;;23.93;16.07;;;;;;;;;;4990752;28;20228;-80
2022/04/15 08:39:22;;;;;;;21.90;15.33;;;;;;;;;;5004087;28;20238;-77
2022/04/15 08:41:48;;;;;;;21.03;14.50;;;;;;;;;;5009427;28;20230;-77
2022/04/15 08:44:16;;;;;;;19.13;13.97;;;;;;;;;;5005937;28;20240;-77
2022/04/15 08:46:44;;;;;;;21.57;14.00;;;;;;;;;;4972772;28;20237;-78
2022/04/15 08:49:09;;;;;;;17.63;12.93;;;;;;;;;;5016339;28;20238;-79
2022/04/15 08:51:35;;;;;;;16.93;12.90;;;;;;;;;;4986649;28;20272;-78
2022/04/15 08:54:04;;;;;;;17.37;12.57;;;;;;;;;;4994644;28;20717;-80
2022/04/15 08:56:30;;;;;;;16.33;12.30;;;;;;;;;;5007554;28;20305;-79
2022/04/15 08:58:58;;;;;;;16.70;12.20;;;;;;;;;;4992183;28;20272;-79
2022/04/15 09:01:23;;;;;;;16.03;12.10;;;;;;;;;;5006514;28;20593;-79
2022/04/15 09:03:49;;;;;;;15.13;12.07;;;;;;;;;;5006980;28;20229;-78
2022/04/15 09:06:17;;;;;;;15.27;11.23;;;;;;;;;;5012172;28;20253;-77
2022/04/15 09:09:24;;;;;;;16.30;10.83;;;;;;;;;;5005743;28;20234;-77
2022/04/15 09:11:49;;;;;;;12.60;9.93;;;;;;;;;;4952256;29;20274;-78
2022/04/15 09:14:15;;;;;;;12.37;9.87;;;;;;;;;;4990704;28;20229;-77
2022/04/15 09:16:45;;;;;;;11.80;9.37;;;;;;;;;;5009099;28;20782;-78
2022/04/15 09:19:14;;;;;;;14.00;10.70;;;;;;;;;;4991187;28;20233;-78
2022/04/15 09:21:53;;;;;;;13.17;11.13;;;;;;;;;;4971265;28;20237;-80
2022/04/15 09:24:31;;;;;;;17.60;12.80;;;;;;;;;;4986481;28;20226;-79
2022/04/15 09:26:56;;;;;;;17.47;12.67;;;;;;;;;;5006511;28;20714;-80
2022/04/15 09:29:26;;;;;;;20.20;14.20;;;;;;;;;;4979618;28;20345;-81
2022/04/15 09:31:57;;;;;;;18.93;14.43;;;;;;;;;;5008221;28;20577;-81
2022/04/15 09:34:25;;;;;;;16.07;11.70;;;;;;;;;;4998498;28;20644;-80
2022/04/15 09:36:50;;;;;;;14.67;11.77;;;;;;;;;;4996214;28;20229;-78
2022/04/15 09:39:21;;;;;;;17.77;11.83;;;;;;;;;;5005147;28;20238;-80
2022/04/15 09:41:51;;;;;;;16.57;12.70;;;;;;;;;;5001966;28;20237;-80
2022/04/15 09:44:19;;;;;;;16.33;12.27;;;;;;;;;;4990311;28;20252;-80
2022/04/15 09:46:47;;;;;;;17.17;12.73;;;;;;;;;;5011737;28;20259;-80
2022/04/15 09:49:15;;;;;;;17.43;13.43;;;;;;;;;;5009615;28;20297;-79
2022/04/15 09:51:41;;;;;;;17.17;12.77;;;;;;;;;;4979118;28;20762;-77
2022/04/15 09:54:09;;;;;;;16.80;13.67;;;;;;;;;;5001250;28;20245;-78
2022/04/15 09:56:39;;;;;;;19.73;14.67;;;;;;;;;;4974114;28;20215;-79
2022/04/15 09:59:08;;;;;;;19.20;14.50;;;;;;;;;;4989986;28;20221;-78
2022/04/15 10:01:34;;;;;;;18.27;13.53;;;;;;;;;;4985602;28;20228;-79
2022/04/15 10:04:03;;;;;;;16.03;13.67;;;;;;;;;;4989251;28;20221;-79
2022/04/15 10:06:31;;;;;;;15.43;13.03;;;;;;;;;;4968319;28;20230;-80
2022/04/15 10:08:57;;;;;;;16.43;13.13;;;;;;;;;;5004202;28;20288;-80
2022/04/15 10:11:23;;;;;;;16.33;12.97;;;;;;;;;;5009205;28;20225;-80
2022/04/15 10:13:48;;;;;;;18.27;13.60;;;;;;;;;;4986059;28;20218;-79
2022/04/15 10:16:20;;;;;;;15.53;13.33;;;;;;;;;;4981029;28;20225;-80
2022/04/15 10:18:48;;;;;;;20.63;14.40;;;;;;;;;;5006503;28;20737;-80
2022/04/15 10:21:14;;;;;;;20.77;14.13;;;;;;;;;;4993495;28;20611;-79
2022/04/15 10:23:39;;;;;;;18.77;14.30;;;;;;;;;;4994085;28;20218;-79
2022/04/15 10:26:06;;;;;;;19.07;14.47;;;;;;;;;;4946347;28;20264;-80
2022/04/15 10:28:44;;;;;;;20.60;14.73;;;;;;;;;;4979898;28;20225;-78
2022/04/15 10:31:14;;;;;;;19.13;14.80;;;;;;;;;;4987203;28;20256;-79
2022/04/15 10:33:40;;;;;;;17.67;14.47;;;;;;;;;;4989418;28;20608;-78
2022/04/15 10:36:17;;;;;;;15.23;13.53;;;;;;;;;;4990415;28;20281;-79
2022/04/15 10:39:06;;;;;;;14.37;12.87;;;;;;;;;;5007446;28;20672;-78
2022/04/15 10:41:41;;;;;;;15.20;12.97;;;;;;;;;;5002086;28;20249;-81
2022/04/15 10:44:09;;;;;;;15.10;13.50;;;;;;;;;;4989570;28;20225;-79
2022/04/15 10:46:38;;;;;;;15.87;13.97;;;;;;;;;;4982033;28;20230;-79
2022/04/15 10:49:30;;;;;;;18.70;14.00;;;;;;;;;;5012283;28;20229;-78
2022/04/15 10:52:01;;;;;;;14.70;13.20;;;;;;;;;;5012261;28;20241;-78
2022/04/15 10:54:35;;;;;;;15.03;13.37;;;;;;;;;;4998644;28;20227;-78
2022/04/15 10:57:10;;;;;;;17.10;13.83;;;;;;;;;;5002110;28;20224;-79
2022/04/15 11:02:21;;;;;;;14.80;13.00;;;;;;;;;;5005088;28;20221;-79
2022/04/15 11:04:50;;;;;;;14.53;12.80;;;;;;;;;;4997276;28;20887;-79
2022/04/15 11:07:25;;;;;;;13.83;12.43;;;;;;;;;;4969473;28;20229;-79
2022/04/15 11:09:51;;;;;;;15.00;12.57;;;;;;;;;;4988387;28;20236;-79
2022/04/15 11:12:42;;;;;;;15.47;13.27;;;;;;;;;;5001205;28;20228;-79
2022/04/15 11:15:11;;;;;;;13.60;12.20;;;;;;;;;;4988751;28;20261;-80
2022/04/15 11:17:41;;;;;;;13.60;12.30;;;;;;;;;;4991025;28;20217;-79
2022/04/15 11:20:07;;;;;;;13.47;12.07;;;;;;;;;;4997334;28;20649;-81
2022/04/15 11:22:38;;;;;;;12.57;11.37;;;;;;;;;;5007399;28;20305;-78
2022/04/15 11:25:06;;;;;;;13.03;11.73;;;;;;;;;;4977575;28;20261;-81
2022/04/15 11:27:34;;;;;;;17.67;15.97;;;;;;;;;;4995587;28;20695;-79
2022/04/15 11:30:04;;;;;;;13.10;11.47;;;;;;;;;;4998140;28;20289;-80
2022/04/15 11:32:30;;;;;;;14.10;12.60;;;;;;;;;;4949190;28;20304;-78
2022/04/15 11:35:03;;;;;;;18.43;16.63;;;;;;;;;;4992704;28;20217;-78
2022/04/15 11:37:28;;;;;;;15.97;14.33;;;;;;;;;;5005450;28;20201;-80
2022/04/15 11:39:53;;;;;;;16.20;14.07;;;;;;;;;;5000629;28;20674;-79
2022/04/15 11:42:19;;;;;;;15.07;13.47;;;;;;;;;;4977914;28;20233;-78
2022/04/15 11:44:44;;;;;;;16.47;14.77;;;;;;;;;;4978903;28;20293;-80
2022/04/15 11:47:16;;;;;;;17.40;15.60;;;;;;;;;;4998081;28;20265;-79
2022/04/15 11:49:42;;;;;;;16.83;15.13;;;;;;;;;;4995251;28;20263;-80
2022/04/15 11:52:10;;;;;;;17.53;15.67;;;;;;;;;;4979804;28;20221;-80
2022/04/15 11:54:39;;;;;;;18.00;15.80;;;;;;;;;;4996816;28;20268;-79
2022/04/15 11:57:05;;;;;;;18.13;16.33;;;;;;;;;;4982171;28;20312;-79
2022/04/15 11:59:41;;;;;;;18.53;16.53;;;;;;;;;;4987284;28;20225;-79
2022/04/15 12:02:08;;;;;;;18.87;16.97;;;;;;;;;;4983226;28;20284;-80
2022/04/15 12:04:34;;;;;;;18.70;16.80;;;;;;;;;;4992572;28;20229;-77
2022/04/15 12:07:03;;;;;;;19.07;17.07;;;;;;;;;;5004919;28;20233;-77
2022/04/15 12:09:28;;;;;;;20.23;17.40;;;;;;;;;;5019437;28;20222;-78
2022/04/15 12:11:54;;;;;;;20.43;18.13;;;;;;;;;;5020780;28;20273;-77
2022/04/15 12:14:22;;;;;;;19.27;17.27;;;;;;;;;;5010934;28;20277;-77
2022/04/15 12:16:50;;;;;;;20.83;18.10;;;;;;;;;;4998742;28;20221;-78
2022/04/15 12:19:16;;;;;;;21.40;18.80;;;;;;;;;;4982552;28;20260;-78
2022/04/15 12:21:42;;;;;;;21.10;18.90;;;;;;;;;;5006681;28;20713;-78
2022/04/15 12:24:09;;;;;;;24.67;19.17;;;;;;;;;;5001367;28;20229;-80
2022/04/15 12:26:51;;;;;;;22.20;19.90;;;;;;;;;;4992099;28;20600;-79
2022/04/15 12:32:29;;;;;;;21.60;18.90;;;;;;;;;;4982705;28;20232;-79
2022/04/15 12:35:02;;;;;;;22.70;19.57;;;;;;;;;;4982872;28;20241;-77
2022/04/15 12:37:43;;;;;;;22.73;20.10;;;;;;;;;;4984498;28;20604;-78
2022/04/15 12:40:11;;;;;;;24.33;20.97;;;;;;;;;;5002697;28;20667;-80
2022/04/15 12:42:37;;;;;;;23.73;19.80;;;;;;;;;;4993289;28;20240;-80
2022/04/15 12:45:09;;;;;;;23.27;20.50;;;;;;;;;;4991445;28;20237;-79
2022/04/15 12:47:37;;;;;;;25.43;20.63;;;;;;;;;;4954736;28;20292;-79
2022/04/15 12:50:25;;;;;;;21.97;19.60;;;;;;;;;;4987983;28;20253;-78
2022/04/15 12:52:56;;;;;;;22.93;19.60;;;;;;;;;;4997841;28;20276;-79
2022/04/15 12:55:31;;;;;;;23.73;19.57;;;;;;;;;;4996797;28;20222;-79
2022/04/15 12:57:58;;;;;;;23.23;20.40;;;;;;;;;;4990585;28;20225;-79
2022/04/15 13:00:24;;;;;;;24.63;20.77;;;;;;;;;;4973390;28;20225;-80
2022/04/15 13:02:49;;;;;;;22.87;20.17;;;;;;;;;;4995716;28;20229;-80
2022/04/15 13:05:15;;;;;;;22.33;19.50;;;;;;;;;;4990553;28;20228;-79
2022/04/15 13:07:42;;;;;;;23.03;19.63;;;;;;;;;;4979908;28;20715;-79
2022/04/15 13:10:10;;;;;;;22.37;19.80;;;;;;;;;;4980257;28;20225;-79
2022/04/15 13:12:40;;;;;;;21.67;19.37;;;;;;;;;;4979969;28;20228;-78
2022/04/15 13:15:09;;;;;;;20.63;18.43;;;;;;;;;;4996840;28;20252;-79
2022/04/15 13:17:34;;;;;;;21.67;19.37;;;;;;;;;;4988258;28;20586;-80
2022/04/15 13:20:02;;;;;;;23.10;20.57;;;;;;;;;;4990540;28;20309;-78
2022/04/15 13:22:27;;;;;;;23.23;20.07;;;;;;;;;;4979086;28;20237;-79
2022/04/15 13:24:56;;;;;;;25.00;21.23;;;;;;;;;;4990243;28;20296;-79
2022/04/15 13:27:24;;;;;;;22.20;19.80;;;;;;;;;;4964571;28;20917;-78
2022/04/15 13:29:52;;;;;;;23.10;20.60;;;;;;;;;;5005376;28;20226;-79
2022/04/15 13:32:20;;;;;;;23.80;20.47;;;;;;;;;;4980545;28;20230;-79
2022/04/15 13:34:47;;;;;;;29.17;23.53;;;;;;;;;;4994312;28;20589;-80
2022/04/15 13:37:13;;;;;;;22.90;20.40;;;;;;;;;;4987593;28;20750;-79
2022/04/15 13:39:38;;;;;;;25.00;21.10;;;;;;;;;;4985958;28;20284;-80
2022/04/15 13:42:04;;;;;;;24.83;20.90;;;;;;;;;;4999231;28;20225;-80
2022/04/15 13:44:32;;;;;;;25.57;22.13;;;;;;;;;;4998611;28;20304;-78
2022/04/15 13:46:57;;;;;;;27.63;23.03;;;;;;;;;;4995635;28;20229;-79
2022/04/15 13:49:23;;;;;;;25.47;22.37;;;;;;;;;;4993172;28;20229;-79
2022/04/15 13:51:48;;;;;;;24.33;21.73;;;;;;;;;;4992365;28;20337;-80
2022/04/15 13:57:05;;;;;;;27.47;23.63;;;;;;;;;;5006060;28;20312;-79
2022/04/15 13:59:35;;;;;;;23.60;21.07;;;;;;;;;;4975690;28;20232;-79
2022/04/15 14:02:00;;;;;;;27.47;21.73;;;;;;;;;;4954304;28;20221;-76
2022/04/15 14:04:26;;;;;;;32.03;24.83;;;;;;;;;;4999720;28;20261;-78
2022/04/15 14:06:51;;;;;;;25.60;21.80;;;;;;;;;;5000744;28;20252;-77
2022/04/15 14:09:18;;;;;;;23.63;21.10;;;;;;;;;;4977790;28;20237;-79
2022/04/15 14:11:47;;;;;;;23.20;20.40;;;;;;;;;;5000749;28;20684;-80
2022/04/15 14:14:15;;;;;;;26.03;21.47;;;;;;;;;;5012219;28;20292;-79
2022/04/15 14:16:47;;;;;;;24.27;20.10;;;;;;;;;;4999028;28;20281;-79
2022/04/15 14:19:13;;;;;;;23.03;20.37;;;;;;;;;;4995158;28;20229;-80
2022/04/15 14:21:39;;;;;;;24.03;21.43;;;;;;;;;;4991687;28;20386;-79
2022/04/15 14:24:07;;;;;;;23.10;19.83;;;;;;;;;;4988363;28;20258;-79
2022/04/15 14:26:32;;;;;;;22.20;19.70;;;;;;;;;;4988764;28;20232;-79
2022/04/15 14:28:58;;;;;;;23.03;20.47;;;;;;;;;;4970785;28;20238;-78
2022/04/15 14:31:31;;;;;;;25.60;22.20;;;;;;;;;;5069027;28;20579;-80
2022/04/15 14:33:57;;;;;;;25.83;20.93;;;;;;;;;;5064207;28;20219;-80